AL16 weather

Turkey Creek Airport
Pinson, Alabama, United States

Public forecast

Using degrees Fahrenheit for public forecast. Weather courtesy of forecast.io.

Closest aviation weather report (METAR) to Turkey Creek Airport

Closest report is Birmingham-Shuttlesworth International Airport, 10.0 nm (18.4 km) S. Retrieved 2019/10/21 15:53 UTC (19 minutes ago):

KBHM 211553Z 18011KT 10SM BKN017 BKN150 BKN250 23/18 A2995 RMK AO2 SLP137 T02330178

Closest aviation forecast (TAF) to Turkey Creek Airport

Closest forecast is Birmingham-Shuttlesworth International Airport, 10.0 nm (18.4 km) S. Retrieved 2019/10/21 12:22 UTC (4 hours ago):

TAF KBHM 211220Z 2112/2212 15008KT P6SM VCSH SCT004 BKN100 FM211700 18009G16KT 6SM -SHRA BKN040 OVC130 FM220000 19007KT 5SM -RA OVC025